createdAt,value
2018-02-06T00:01:27.384Z,79.50
2018-02-06T00:03:53.804Z,79.50
2018-02-06T00:06:20.980Z,80.30
2018-02-06T00:08:47.383Z,80.20
2018-02-06T00:11:14.552Z,80.10
2018-02-06T00:13:40.997Z,80.10
2018-02-06T00:16:07.412Z,80.50
2018-02-06T00:18:33.812Z,80.10
2018-02-06T00:21:00.233Z,79.90
2018-02-06T00:23:26.640Z,80.10
2018-02-06T00:25:53.068Z,80.50
2018-02-06T00:28:19.593Z,80.20
2018-02-06T00:30:46.017Z,79.80
2018-02-06T00:33:12.480Z,80.10
2018-02-06T00:35:38.925Z,80.30
2018-02-06T00:38:05.264Z,79.70
2018-02-06T00:40:31.689Z,79.60
2018-02-06T00:42:58.869Z,79.50
2018-02-06T00:45:26.020Z,80.60
2018-02-06T00:47:53.156Z,80.20
2018-02-06T00:50:19.597Z,80.10
2018-02-06T00:52:46.041Z,79.90
2018-02-06T00:55:13.276Z,79.60
2018-02-06T00:57:39.701Z,79.50
2018-02-06T01:00:06.097Z,79.40
2018-02-06T01:02:32.536Z,79.70
2018-02-06T01:04:58.978Z,79.80
2018-02-06T01:07:26.138Z,80.70
2018-02-06T01:09:52.797Z,80.70
2018-02-06T01:12:19.244Z,80.10
2018-02-06T01:14:46.445Z,80.30
2018-02-06T01:17:12.850Z,80.30
2018-02-06T01:19:39.259Z,80.80
2018-02-06T01:22:06.409Z,79.40
2018-02-06T01:24:33.563Z,79.80
2018-02-06T01:27:00.752Z,79.80
2018-02-06T01:29:27.294Z,79.80
2018-02-06T01:31:53.709Z,80.20
2018-02-06T01:34:20.200Z,80.10
2018-02-06T01:36:46.593Z,80.20
2018-02-06T01:39:13.013Z,80.80
2018-02-06T01:41:46.424Z,80.50
2018-02-06T01:44:12.834Z,80.10
2018-02-06T01:46:39.229Z,80.10
2018-02-06T01:49:05.614Z,80.70
2018-02-06T01:51:32.025Z,80.10
2018-02-06T01:53:58.481Z,79.70
2018-02-06T01:56:24.916Z,79.80
2018-02-06T01:58:51.353Z,79.90
2018-02-06T02:01:17.869Z,79.50
2018-02-06T02:03:44.271Z,79.50
2018-02-06T02:06:11.496Z,80.20
2018-02-06T02:08:37.920Z,80.20
2018-02-06T02:11:04.456Z,80.50
2018-02-06T02:13:30.877Z,80.10
2018-02-06T02:15:58.016Z,79.70
2018-02-06T02:18:24.428Z,79.70
2018-02-06T02:20:50.865Z,80.50
2018-02-06T02:23:17.316Z,79.90
2018-02-06T02:25:43.797Z,80.00
2018-02-06T02:28:10.945Z,80.00
2018-02-06T02:30:37.361Z,80.00
2018-02-06T02:33:03.784Z,79.70
2018-02-06T02:35:30.961Z,81.10
2018-02-06T02:37:58.206Z,81.20
2018-02-06T02:40:24.617Z,81.10
2018-02-06T04:40:02.251Z,82.20
2018-02-06T04:42:28.672Z,82.20
2018-02-06T04:45:02.095Z,81.80
2018-02-06T04:47:28.517Z,81.40
2018-02-06T04:49:54.941Z,81.60
2018-02-06T04:52:21.381Z,81.60
2018-02-06T04:54:47.768Z,81.60
2018-02-06T04:57:14.209Z,81.40
2018-02-06T04:59:41.352Z,82.50
2018-02-06T05:02:07.744Z,81.80
2018-02-06T05:04:34.168Z,81.80
2018-02-06T05:07:00.692Z,81.60
2018-02-06T05:09:27.097Z,82.10
2018-02-06T05:11:54.256Z,82.10
2018-02-06T05:14:21.409Z,81.90
2018-02-06T05:16:48.548Z,82.10
2018-02-06T05:19:15.712Z,82.30
2018-02-06T05:21:42.132Z,82.30
2018-02-06T05:24:09.323Z,82.10
2018-02-06T05:26:35.807Z,82.10
2018-02-06T05:29:03.008Z,82.00
2018-02-06T05:31:29.425Z,82.00
2018-02-06T05:33:55.853Z,81.90
2018-02-06T05:36:22.339Z,81.80
2018-02-06T05:38:49.504Z,82.80
2018-02-06T05:41:15.914Z,82.20
2018-02-06T05:43:42.370Z,82.30
2018-02-06T05:46:08.828Z,82.10
2018-02-06T05:48:35.314Z,82.10
2018-02-06T05:51:01.742Z,82.10
2018-02-06T05:53:28.924Z,82.20
2018-02-06T05:55:56.068Z,81.90
2018-02-06T05:58:23.217Z,82.70
2018-02-06T06:00:49.633Z,82.40
2018-02-06T06:03:16.071Z,82.10
2018-02-06T06:05:42.531Z,82.20
2018-02-06T06:08:09.848Z,82.40
2018-02-06T06:10:36.280Z,82.40
2018-02-06T06:13:02.700Z,82.50
2018-02-06T06:15:29.088Z,82.10
2018-02-06T06:17:56.289Z,82.70
2018-02-06T06:20:22.725Z,82.60
2018-02-06T06:22:49.148Z,82.70
2018-02-06T06:25:15.589Z,82.70
2018-02-06T06:27:42.048Z,82.60
2018-02-06T06:30:09.217Z,82.50
2018-02-06T06:32:36.396Z,83.20
2018-02-06T06:35:03.513Z,83.10
2018-02-06T06:37:30.668Z,83.00
2018-02-06T06:39:57.864Z,83.20
2018-02-06T06:42:24.277Z,83.20
2018-02-06T06:44:50.797Z,83.30
2018-02-06T06:47:17.212Z,82.60
2018-02-06T06:49:44.348Z,82.80
2018-02-06T06:52:10.775Z,82.70
2018-02-06T06:54:37.180Z,83.30
2018-02-06T06:57:03.592Z,83.00
2018-02-06T06:59:30.011Z,83.60
2018-02-06T07:01:56.432Z,84.10
2018-02-06T07:04:23.572Z,83.50
2018-02-06T07:06:50.070Z,83.50
2018-02-06T07:09:16.498Z,83.30
2018-02-06T07:11:42.910Z,83.50
2018-02-06T07:14:09.336Z,83.80
2018-02-06T07:16:35.831Z,83.60
2018-02-06T07:19:03.136Z,84.00
2018-02-06T07:21:29.517Z,83.30
2018-02-06T07:23:56.668Z,84.50
2018-02-06T07:26:23.856Z,83.60
2018-02-06T07:28:50.348Z,83.50
2018-02-06T07:31:16.768Z,83.60
2018-02-06T07:33:43.174Z,84.00
2018-02-06T07:36:09.587Z,83.50
2018-02-06T07:38:36.053Z,84.20
2018-02-06T07:41:02.444Z,84.20
2018-02-06T07:43:28.922Z,83.70
2018-02-06T07:45:55.451Z,83.30
2018-02-06T07:48:21.881Z,83.40
2018-02-06T07:50:49.033Z,84.10
2018-02-06T07:53:15.493Z,83.50
2018-02-06T07:55:41.873Z,83.50
2018-02-06T07:58:08.289Z,83.20
2018-02-06T08:00:34.705Z,83.10
2018-02-06T08:03:01.825Z,84.00
2018-02-06T08:05:28.255Z,83.90
2018-02-06T08:07:55.416Z,83.60
2018-02-06T08:10:21.812Z,84.20
2018-02-06T08:12:48.238Z,84.00
2018-02-06T08:15:14.765Z,83.40
2018-02-06T08:17:41.227Z,83.40
2018-02-06T08:20:07.653Z,83.50
2018-02-06T08:22:34.093Z,83.00
2018-02-06T08:25:01.258Z,83.00
2018-02-06T08:27:27.656Z,83.00
2018-02-06T08:29:54.061Z,83.30
2018-02-06T08:32:21.218Z,84.50
2018-02-06T08:34:47.629Z,84.40
2018-02-06T08:37:14.809Z,84.80
2018-02-06T08:39:41.205Z,84.70
2018-02-06T08:42:07.629Z,84.70
2018-02-06T08:44:34.081Z,84.00
2018-02-06T08:47:01.342Z,83.60
2018-02-06T08:49:28.549Z,83.50
2018-02-06T08:51:54.951Z,83.50
2018-02-06T08:54:21.387Z,83.20
2018-02-06T08:56:47.829Z,82.90
2018-02-06T08:59:14.306Z,83.20
2018-02-06T09:01:40.741Z,82.50
2018-02-06T09:04:07.996Z,82.80
2018-02-06T09:06:34.405Z,82.60
2018-02-06T09:09:00.817Z,82.10
2018-02-06T09:11:27.260Z,82.60
2018-02-06T09:13:53.696Z,82.60
2018-02-06T09:16:20.150Z,83.20
2018-02-06T09:18:46.554Z,83.10
2018-02-06T09:21:12.977Z,83.20
2018-02-06T09:23:39.382Z,82.90
2018-02-06T09:26:05.869Z,82.60
2018-02-06T09:28:32.266Z,82.60
2018-02-06T09:30:58.711Z,82.80
2018-02-06T09:33:25.129Z,83.50
2018-02-06T09:35:51.549Z,83.70
2018-02-06T09:38:17.997Z,83.50
2018-02-06T09:40:44.393Z,84.20
2018-02-06T09:43:11.556Z,83.40
2018-02-06T09:45:37.957Z,83.40
2018-02-06T09:48:04.369Z,83.90
2018-02-06T09:50:30.792Z,83.80
2018-02-06T09:52:57.270Z,83.60
2018-02-06T09:55:24.413Z,82.60
2018-02-06T09:57:50.870Z,82.50
2018-02-06T10:00:17.412Z,83.60
2018-02-06T10:02:43.869Z,82.50
2018-02-06T10:05:10.294Z,82.50
2018-02-06T10:07:36.792Z,82.60
2018-02-06T10:10:04.029Z,81.60
2018-02-06T10:12:31.218Z,82.20
2018-02-06T10:14:57.640Z,82.20
2018-02-06T10:17:24.933Z,82.10
2018-02-06T10:19:51.348Z,82.10
2018-02-06T10:22:17.820Z,82.40
2018-02-06T10:24:44.248Z,81.60
2018-02-06T10:27:10.656Z,81.40
2018-02-06T10:29:37.064Z,81.60
2018-02-06T10:32:03.473Z,80.70
2018-02-06T10:34:30.623Z,80.30
2018-02-06T10:36:57.755Z,80.10
2018-02-06T10:39:24.154Z,80.00
2018-02-06T10:41:50.555Z,79.70
2018-02-06T10:44:17.124Z,81.50
2018-02-06T10:46:43.523Z,82.10
2018-02-06T10:49:09.957Z,81.30
2018-02-06T10:51:36.348Z,81.10
2018-02-06T10:54:02.761Z,82.70
2018-02-06T10:56:29.188Z,82.80
2018-02-06T10:58:55.581Z,81.70
2018-02-06T11:01:22.740Z,80.80
2018-02-06T11:03:49.145Z,80.80
2018-02-06T11:06:15.625Z,81.10
2018-02-06T11:08:42.032Z,80.60
2018-02-06T11:11:08.459Z,81.10
2018-02-06T11:13:35.614Z,80.60
2018-02-06T11:16:02.776Z,82.20
2018-02-06T11:18:29.184Z,82.10
2018-02-06T11:20:56.353Z,81.40
2018-02-06T11:23:22.776Z,81.40
2018-02-06T11:25:49.960Z,80.80
2018-02-06T11:28:16.416Z,80.80
2018-02-06T11:30:43.636Z,80.40
2018-02-06T11:33:10.032Z,80.40
2018-02-06T11:35:37.310Z,80.20
2018-02-06T11:38:03.728Z,80.20
2018-02-06T11:40:30.174Z,79.80
2018-02-06T11:42:56.609Z,78.90
2018-02-06T11:45:23.003Z,79.40
2018-02-06T11:47:49.399Z,79.20
2018-02-06T11:50:15.868Z,79.80
2018-02-06T11:52:42.248Z,79.00
2018-02-06T11:55:08.751Z,79.30
2018-02-06T11:57:35.932Z,79.00
2018-02-06T12:00:02.407Z,78.90
2018-02-06T12:02:28.802Z,78.70
2018-02-06T12:04:55.221Z,80.00
2018-02-06T12:07:21.629Z,80.10
2018-02-06T12:09:48.802Z,81.30
2018-02-06T12:12:15.232Z,81.30
2018-02-06T12:14:42.380Z,79.80
2018-02-06T12:17:08.789Z,79.80
2018-02-06T12:19:35.981Z,80.10
2018-02-06T12:22:02.443Z,80.10
2018-02-06T12:24:28.860Z,80.60
2018-02-06T12:26:55.281Z,80.80
2018-02-06T12:29:21.744Z,80.80
2018-02-06T12:31:48.916Z,80.90
2018-02-06T12:34:15.312Z,80.80
2018-02-06T12:36:41.826Z,80.90
2018-02-06T12:39:08.231Z,81.90
2018-02-06T12:41:34.632Z,81.40
2018-02-06T12:44:01.040Z,81.50
2018-02-06T12:46:27.545Z,81.60
2018-02-06T12:48:53.933Z,81.60
2018-02-06T12:51:20.389Z,81.00
2018-02-06T12:53:46.873Z,81.10
2018-02-06T12:56:13.276Z,81.20
2018-02-06T12:58:46.561Z,80.40
2018-02-06T13:01:12.970Z,80.30
2018-02-06T13:03:40.888Z,80.10
2018-02-06T13:06:08.123Z,80.10
2018-02-06T13:08:34.568Z,80.70
2018-02-06T13:11:01.025Z,80.30
2018-02-06T13:13:27.432Z,80.60
2018-02-06T13:15:53.844Z,80.90
2018-02-06T13:18:21.144Z,82.60
2018-02-06T13:20:47.596Z,82.50
2018-02-06T13:23:13.996Z,82.40
2018-02-06T13:25:40.436Z,82.80
2018-02-06T13:28:06.859Z,83.00
2018-02-06T13:30:33.440Z,82.70
2018-02-06T13:32:59.869Z,82.80
2018-02-06T13:35:26.317Z,81.50
2018-02-06T13:37:53.484Z,82.40
2018-02-06T13:40:19.936Z,82.30
2018-02-06T13:42:46.353Z,82.10
2018-02-06T13:45:12.766Z,80.20
2018-02-06T13:47:39.969Z,81.10
2018-02-06T13:50:06.358Z,81.00
2018-02-06T13:52:33.534Z,81.30
2018-02-06T13:54:59.974Z,81.20
2018-02-06T13:57:32.144Z,80.40
2018-02-06T13:59:58.549Z,80.10
2018-02-06T14:02:24.969Z,79.50
2018-02-06T14:04:52.199Z,81.20
2018-02-06T14:07:18.633Z,81.10
2018-02-06T14:09:45.034Z,81.30
2018-02-06T14:14:38.472Z,81.10
2018-02-06T14:17:06.812Z,80.80
2018-02-06T14:19:34.393Z,80.80
2018-02-06T14:22:02.776Z,82.00
2018-02-06T14:24:31.134Z,81.20
2018-02-06T14:26:58.746Z,81.20
2018-02-06T14:29:26.393Z,80.90
2018-02-06T14:31:53.995Z,80.70
2018-02-06T14:34:21.581Z,80.80
2018-02-06T14:36:50.111Z,81.70
2018-02-06T14:39:18.526Z,81.20
2018-02-06T14:41:46.139Z,81.10
2018-02-06T14:44:13.826Z,80.80
2018-02-06T14:46:41.433Z,80.20
2018-02-06T14:49:09.979Z,81.00
2018-02-06T14:51:37.658Z,80.90
2018-02-06T14:54:05.247Z,80.90
2018-02-06T14:56:33.664Z,80.40
2018-02-06T14:59:01.246Z,80.40
2018-02-06T15:01:29.318Z,80.30
2018-02-06T15:03:57.201Z,80.10
2018-02-06T15:06:25.381Z,80.70
2018-02-06T15:08:53.034Z,80.80
2018-02-06T15:11:20.714Z,81.10
2018-02-06T15:13:48.465Z,81.10
2018-02-06T15:16:16.653Z,81.20
2018-02-06T15:18:45.044Z,81.70
2018-02-06T15:21:13.425Z,81.80
2018-02-06T15:23:41.798Z,82.10
2018-02-06T15:26:10.155Z,82.30
2018-02-06T15:28:37.732Z,82.30
2018-02-06T15:31:06.105Z,82.60
2018-02-06T15:33:34.472Z,82.40
2018-02-06T15:36:02.166Z,82.40
2018-02-06T15:38:30.522Z,82.60
2018-02-06T15:40:58.358Z,82.50
2018-02-06T15:43:25.936Z,82.30
2018-02-06T15:45:53.517Z,82.30
2018-02-06T15:48:21.881Z,82.60
2018-02-06T15:50:49.472Z,82.50
2018-02-06T15:53:17.332Z,82.60
2018-02-06T15:55:45.757Z,82.50
2018-02-06T15:58:13.446Z,82.40
2018-02-06T16:00:41.503Z,82.30
2018-02-06T16:03:09.100Z,82.90
2018-02-06T16:05:37.444Z,82.60
2018-02-06T16:08:05.033Z,82.60
2018-02-06T16:10:32.737Z,82.40
2018-02-06T16:13:00.385Z,82.00
2018-02-06T16:15:28.139Z,82.10
2018-02-06T16:17:55.923Z,82.10
2018-02-06T16:20:24.711Z,82.50
2018-02-06T16:22:52.313Z,82.60
2018-02-06T16:25:19.893Z,82.80
2018-02-06T16:27:48.289Z,82.50
2018-02-06T16:30:16.110Z,82.50
2018-02-06T16:32:43.685Z,82.60
2018-02-06T16:35:11.298Z,82.50
2018-02-06T16:37:38.897Z,82.40
2018-02-06T16:40:06.790Z,82.80
2018-02-06T16:42:35.177Z,83.00
2018-02-06T16:45:03.559Z,83.10
2018-02-06T16:47:31.165Z,83.10
2018-02-06T16:49:59.111Z,83.30
2018-02-06T16:52:26.820Z,83.50
2018-02-06T16:54:54.450Z,84.00
2018-02-06T16:57:22.040Z,83.80
2018-02-06T16:59:49.664Z,83.80
2018-02-06T17:02:29.063Z,84.00
2018-02-06T17:04:57.424Z,83.80
2018-02-06T17:07:27.573Z,84.20
2018-02-06T17:09:55.189Z,84.20
2018-02-06T17:12:22.770Z,84.50
2018-02-06T17:14:50.491Z,84.10
2018-02-06T17:17:18.122Z,84.50
2018-02-06T17:19:45.746Z,84.30
2018-02-06T17:22:13.360Z,84.90
2018-02-06T17:24:41.016Z,85.60
2018-02-06T17:27:09.382Z,85.70
2018-02-06T17:29:36.981Z,85.60
2018-02-06T17:32:04.595Z,86.20
2018-02-06T17:34:33.072Z,85.90
2018-02-06T17:37:00.658Z,85.90
2018-02-06T17:39:28.379Z,86.00
2018-02-06T17:41:56.753Z,85.80
2018-02-06T17:44:25.237Z,86.10
2018-02-06T17:46:53.590Z,86.40
2018-02-06T17:49:21.226Z,86.40
2018-02-06T17:51:48.867Z,86.00
2018-02-06T17:54:16.471Z,85.70
2018-02-06T17:56:44.090Z,85.70
2018-02-06T17:59:11.749Z,85.20
2018-02-06T18:01:39.326Z,85.60
2018-02-06T18:04:06.949Z,85.60
2018-02-06T18:06:35.393Z,85.70
2018-02-06T18:09:02.969Z,85.60
2018-02-06T18:11:30.573Z,85.40
2018-02-06T18:13:58.231Z,85.40
2018-02-06T18:16:25.844Z,85.30
2018-02-06T18:18:54.211Z,85.00
2018-02-06T18:21:22.598Z,85.00
2018-02-06T18:23:50.200Z,85.50
2018-02-06T18:26:17.813Z,85.50
2018-02-06T18:28:45.709Z,84.70
2018-02-06T18:31:14.099Z,85.10
2018-02-06T18:33:42.457Z,85.20
2018-02-06T18:36:10.087Z,85.10
2018-02-06T18:38:37.693Z,84.60
2018-02-06T18:41:05.382Z,85.30
2018-02-06T18:43:33.003Z,85.30
2018-02-06T18:46:00.577Z,85.10
2018-02-06T18:48:29.009Z,85.70
2018-02-06T18:50:56.584Z,85.70
2018-02-06T18:53:24.221Z,85.30
2018-02-06T18:55:51.865Z,85.70
2018-02-06T18:58:19.541Z,86.00
2018-02-06T19:00:47.181Z,86.10
2018-02-06T19:03:15.357Z,86.00
2018-02-06T19:05:42.981Z,86.40
2018-02-06T19:08:10.697Z,86.20
2018-02-06T19:10:38.343Z,86.30
2018-02-06T19:13:06.108Z,86.50
2018-02-06T19:15:33.764Z,86.10
2018-02-06T19:18:02.154Z,86.10
2018-02-06T19:20:29.736Z,86.00
2018-02-06T19:22:58.129Z,86.00
2018-02-06T19:25:25.749Z,86.00
2018-02-06T19:27:53.345Z,85.90
2018-02-06T19:30:20.962Z,85.20
2018-02-06T19:32:48.588Z,85.40
2018-02-06T19:35:16.242Z,85.30
2018-02-06T19:37:43.837Z,85.40
2018-02-06T19:40:11.440Z,85.30
2018-02-06T19:42:39.055Z,85.40
2018-02-06T19:45:07.516Z,85.20
2018-02-06T19:47:35.129Z,85.20
2018-02-06T19:50:02.705Z,85.20
2018-02-06T19:52:30.421Z,85.00
2018-02-06T19:54:58.012Z,85.20
2018-02-06T19:57:25.598Z,84.90
2018-02-06T19:59:53.256Z,84.90
2018-02-06T20:02:20.869Z,84.80
2018-02-06T20:04:48.461Z,84.80
2018-02-06T20:07:16.112Z,84.90
2018-02-06T20:09:44.485Z,85.70
2018-02-06T20:12:12.108Z,85.70
2018-02-06T20:14:40.471Z,85.70
2018-02-06T20:17:08.102Z,85.70
2018-02-06T20:19:35.703Z,85.50
2018-02-06T20:21:44.641Z,85.70
2018-02-06T20:22:48.055Z,85.40
2018-02-06T20:23:51.667Z,85.30
2018-02-06T20:24:54.395Z,85.30
2018-02-06T20:25:57.769Z,85.90
2018-02-06T20:27:01.154Z,86.00
2018-02-06T20:28:04.526Z,86.40
2018-02-06T20:29:07.141Z,85.80
2018-02-06T20:30:09.736Z,85.70
2018-02-06T20:31:12.344Z,85.60
2018-02-06T20:32:15.741Z,85.60
2018-02-06T20:33:18.389Z,85.50
2018-02-06T20:34:21.000Z,85.70
2018-02-06T20:35:23.581Z,85.70
2018-02-06T20:36:26.205Z,86.00
2018-02-06T20:37:29.560Z,85.80
2018-02-06T20:38:32.233Z,85.80
2018-02-06T20:39:35.821Z,85.90
2018-02-06T20:40:38.418Z,85.70
2018-02-06T20:41:41.799Z,85.70
2018-02-06T20:44:32.961Z,86.00
2018-02-06T20:46:35.577Z,85.60
2018-02-06T20:48:38.343Z,85.70
2018-02-06T20:50:41.091Z,85.40
2018-02-06T20:52:43.721Z,85.40
2018-02-06T20:54:46.352Z,85.60
2018-02-06T20:56:48.965Z,85.70
2018-02-06T20:58:51.594Z,85.50
2018-02-06T21:00:54.206Z,86.30
2018-02-06T21:02:56.817Z,86.50
2018-02-06T21:04:59.448Z,86.20
2018-02-06T21:07:02.076Z,85.90
2018-02-06T21:09:04.690Z,85.50
2018-02-06T21:11:07.298Z,85.70
2018-02-06T21:13:10.653Z,86.20
2018-02-06T21:15:13.292Z,85.60
2018-02-06T21:17:15.882Z,85.50
2018-02-06T21:19:18.600Z,85.60
2018-02-06T21:21:21.208Z,86.20
2018-02-06T21:23:23.803Z,86.60
2018-02-06T21:25:26.420Z,85.80
2018-02-06T21:27:29.020Z,85.70
2018-02-06T21:29:32.410Z,85.60
2018-02-06T21:31:35.834Z,85.80
2018-02-06T21:33:38.441Z,85.80
2018-02-06T21:35:41.052Z,86.10
2018-02-06T21:37:44.417Z,86.40
2018-02-06T21:39:47.085Z,86.40
2018-02-06T21:41:49.716Z,87.00
2018-02-06T21:43:52.314Z,86.50
2018-02-06T21:45:54.932Z,86.20
2018-02-06T21:47:57.513Z,86.20
2018-02-06T21:50:00.900Z,86.30
2018-02-06T21:52:03.509Z,86.30
2018-02-06T21:54:06.109Z,85.60
2018-02-06T21:56:08.714Z,86.30
2018-02-06T21:58:11.297Z,85.60
2018-02-06T22:00:13.910Z,86.30
2018-02-06T22:02:16.532Z,85.50
2018-02-06T22:04:19.152Z,86.00
2018-02-06T22:06:22.653Z,86.20
2018-02-06T22:08:25.267Z,86.00
2018-02-06T22:10:27.895Z,85.70
2018-02-06T22:12:30.625Z,86.00
2018-02-06T22:14:33.225Z,86.10
2018-02-06T22:16:36.590Z,86.10
2018-02-06T22:18:39.231Z,86.10
2018-02-06T22:20:41.842Z,85.60
2018-02-06T22:22:44.482Z,86.40
2018-02-06T22:24:47.137Z,86.50
2018-02-06T22:26:49.730Z,87.00
2018-02-06T22:28:52.348Z,87.30
2018-02-06T22:30:54.946Z,87.10
2018-02-06T22:32:58.316Z,86.80
2018-02-06T22:35:00.925Z,86.80
2018-02-06T22:37:03.534Z,87.10
2018-02-06T22:39:07.070Z,87.00
2018-02-06T22:41:09.716Z,86.90
2018-02-06T22:43:12.306Z,87.20
2018-02-06T22:45:14.936Z,87.70
2018-02-06T22:47:17.560Z,87.60
2018-02-06T22:49:20.167Z,86.50
2018-02-06T22:51:22.781Z,87.00
2018-02-06T22:53:26.153Z,86.90
2018-02-06T22:55:28.739Z,86.90
2018-02-06T22:57:31.349Z,87.30
2018-02-06T22:59:33.997Z,86.90
2018-02-06T23:01:36.608Z,86.40
2018-02-06T23:03:39.245Z,86.40
2018-02-06T23:05:41.840Z,86.60
2018-02-06T23:07:44.455Z,87.10
2018-02-06T23:09:47.118Z,87.10
2018-02-06T23:11:49.720Z,87.20
2018-02-06T23:13:52.327Z,86.40
2018-02-06T23:15:54.905Z,86.60
2018-02-06T23:17:57.522Z,86.40
2018-02-06T23:20:00.902Z,87.60
2018-02-06T23:22:04.310Z,87.30
2018-02-06T23:24:06.989Z,87.30
2018-02-06T23:26:09.594Z,87.30
2018-02-06T23:28:12.189Z,87.60
2018-02-06T23:30:14.798Z,87.10
2018-02-06T23:32:18.177Z,87.00
2018-02-06T23:34:20.761Z,86.90
2018-02-06T23:36:24.153Z,86.10
2018-02-06T23:38:27.540Z,86.80
2018-02-06T23:40:30.137Z,86.80
2018-02-06T23:42:32.761Z,86.10
2018-02-06T23:44:35.357Z,86.20
2018-02-06T23:46:38.001Z,86.40
2018-02-06T23:48:40.651Z,86.10
2018-02-06T23:50:43.261Z,85.50
2018-02-06T23:52:45.851Z,85.80
2018-02-06T23:54:48.469Z,86.40
2018-02-06T23:56:51.069Z,86.60
2018-02-06T23:58:54.665Z,86.60
